Time;durP1;ratioP1;P1;durP2;ratioP2;P2;SDS_P1;SDS_P2;PMS_P1;PMS_P2;Temp;Humidity;BMP_temperature;BMP_pressure;BME280_temperature;BME280_humidity;BME280_pressure;Samples;Min_cycle;Max_cycle;Signal;HPM_P1;HPM_P2
2021/03/09 00:02:04;;;;;;;18.97;11.40;;;-0.60;99.90;;;;;;5113534;28;20746;-69
2021/03/09 00:04:30;;;;;;;17.30;12.23;;;-0.80;99.90;;;;;;5112383;28;20493;-70
2021/03/09 00:06:57;;;;;;;14.77;11.83;;;-0.90;99.90;;;;;;5112953;28;20563;-69
2021/03/09 00:09:25;;;;;;;17.37;11.77;;;-0.90;99.90;;;;;;5113310;28;20518;-69
2021/03/09 00:11:51;;;;;;;16.33;12.23;;;-0.90;99.90;;;;;;5113169;28;20528;-69
2021/03/09 00:14:17;;;;;;;18.57;12.80;;;-0.90;99.90;;;;;;5111682;27;20552;-70
2021/03/09 00:16:44;;;;;;;18.30;13.60;;;-0.90;99.90;;;;;;5113149;28;20448;-69
2021/03/09 00:19:10;;;;;;;20.93;12.77;;;-1.00;99.90;;;;;;5113328;28;20453;-69
2021/03/09 00:21:37;;;;;;;15.80;12.27;;;-1.00;99.90;;;;;;5104250;28;21127;-70
2021/03/09 00:24:04;;;;;;;19.87;12.80;;;-1.10;99.90;;;;;;5101523;28;20541;-69
2021/03/09 00:26:31;;;;;;;16.23;12.13;;;-1.20;99.90;;;;;;5113572;28;20623;-69
2021/03/09 00:28:57;;;;;;;17.80;12.73;;;-1.20;99.90;;;;;;5112865;28;20496;-70
2021/03/09 00:31:24;;;;;;;22.00;12.50;;;-1.20;99.90;;;;;;5113016;28;20457;-68
2021/03/09 00:33:50;;;;;;;19.27;12.57;;;-1.20;99.90;;;;;;5111925;27;20445;-69
2021/03/09 00:36:16;;;;;;;21.33;14.10;;;-1.20;99.90;;;;;;5112407;28;20592;-68
2021/03/09 00:38:43;;;;;;;20.53;14.10;;;-1.10;99.90;;;;;;5112356;28;20537;-69
2021/03/09 00:41:09;;;;;;;17.33;11.93;;;-1.10;99.90;;;;;;5112768;28;20518;-70
2021/03/09 00:43:36;;;;;;;19.03;12.50;;;-1.10;99.90;;;;;;5111864;27;20533;-69
2021/03/09 00:46:03;;;;;;;22.87;14.73;;;-1.10;99.90;;;;;;5092378;28;20603;-70
2021/03/09 00:48:36;;;;;;;21.67;12.70;;;-1.10;99.90;;;;;;5105864;28;20485;-69
2021/03/09 00:51:02;;;;;;;18.37;14.00;;;-1.10;99.90;;;;;;5112790;28;20449;-70
2021/03/09 00:53:29;;;;;;;19.27;13.27;;;-1.10;99.90;;;;;;5111893;28;20449;-70
2021/03/09 00:55:55;;;;;;;21.73;13.10;;;-1.10;99.90;;;;;;5092792;28;20552;-70
2021/03/09 00:58:21;;;;;;;18.60;13.63;;;-1.10;99.90;;;;;;5112601;28;20469;-71
2021/03/09 01:00:49;;;;;;;17.43;12.40;;;-1.10;99.90;;;;;;5112215;28;20873;-70
2021/03/09 01:03:15;;;;;;;21.97;13.70;;;-1.10;99.90;;;;;;5112159;28;20576;-71
2021/03/09 01:05:42;;;;;;;22.10;13.10;;;-1.20;99.90;;;;;;5111749;28;20508;-70
2021/03/09 01:08:09;;;;;;;21.50;13.30;;;-1.10;99.90;;;;;;5112332;27;20567;-70
2021/03/09 01:10:36;;;;;;;15.77;11.37;;;-1.20;99.90;;;;;;5112377;28;20535;-70
2021/03/09 01:13:02;;;;;;;20.13;13.30;;;-1.20;99.90;;;;;;5111877;28;20955;-71
2021/03/09 01:15:29;;;;;;;19.73;14.00;;;-1.20;99.90;;;;;;5111098;28;21032;-70
2021/03/09 01:17:56;;;;;;;20.20;13.77;;;-1.20;99.90;;;;;;5111767;28;20470;-71
2021/03/09 01:20:23;;;;;;;21.50;13.63;;;-1.30;99.90;;;;;;5112187;28;20476;-70
2021/03/09 01:22:49;;;;;;;17.70;13.33;;;-1.30;99.90;;;;;;5111868;28;20492;-70
2021/03/09 01:25:15;;;;;;;20.33;13.70;;;-1.30;99.90;;;;;;5111132;27;20595;-70
2021/03/09 01:27:42;;;;;;;23.30;15.03;;;-1.30;99.90;;;;;;5111682;28;20614;-71
2021/03/09 01:30:10;;;;;;;19.77;13.80;;;-1.20;99.90;;;;;;5111789;28;20487;-70
2021/03/09 01:32:37;;;;;;;20.50;13.90;;;-1.20;99.90;;;;;;5111984;28;20524;-70
2021/03/09 01:35:06;;;;;;;22.90;14.30;;;-1.20;99.90;;;;;;5111102;28;20549;-70
2021/03/09 01:37:32;;;;;;;20.47;14.07;;;-1.30;99.90;;;;;;5111695;28;20877;-70
2021/03/09 01:39:59;;;;;;;22.33;14.77;;;-1.30;99.90;;;;;;5111343;28;20485;-70
2021/03/09 01:42:26;;;;;;;20.33;14.33;;;-1.30;99.90;;;;;;5111810;28;20536;-68
2021/03/09 01:44:52;;;;;;;18.73;13.20;;;-1.30;99.90;;;;;;5110658;28;20932;-68
2021/03/09 01:47:19;;;;;;;19.00;13.97;;;-1.20;99.90;;;;;;5112254;28;20571;-70
2021/03/09 01:49:47;;;;;;;15.97;11.70;;;-1.30;99.90;;;;;;5111097;28;20520;-71
2021/03/09 01:52:14;;;;;;;22.30;14.83;;;-1.40;99.90;;;;;;5112327;28;20476;-71
2021/03/09 01:54:41;;;;;;;20.30;13.43;;;-1.40;99.90;;;;;;5111094;28;20934;-71
2021/03/09 01:57:08;;;;;;;17.90;13.57;;;-1.40;99.90;;;;;;5111878;28;20530;-68
2021/03/09 01:59:36;;;;;;;18.93;12.93;;;-1.50;99.90;;;;;;5111794;28;20528;-69
2021/03/09 02:02:02;;;;;;;19.30;12.93;;;-1.50;99.90;;;;;;5112253;28;20524;-68
2021/03/09 02:04:29;;;;;;;19.70;13.87;;;-1.50;99.90;;;;;;5111163;28;20548;-69
2021/03/09 02:06:55;;;;;;;16.73;12.50;;;-1.60;99.90;;;;;;5111323;28;21029;-68
2021/03/09 02:09:23;;;;;;;19.43;14.40;;;-1.50;99.90;;;;;;5111567;28;20541;-68
2021/03/09 02:12:00;;;;;;;15.93;12.37;;;-1.50;99.90;;;;;;5111782;28;20524;-70
2021/03/09 02:14:31;;;;;;;19.30;13.50;;;-1.60;99.90;;;;;;5111206;28;20547;-68
2021/03/09 02:17:04;;;;;;;21.13;14.27;;;-1.60;99.90;;;;;;5111892;28;21007;-68
2021/03/09 02:20:01;;;;;;;24.83;14.97;;;-1.60;99.90;;;;;;5111648;28;20544;-68
2021/03/09 02:22:42;;;;;;;16.10;12.83;;;-1.60;99.90;;;;;;5111707;28;20536;-68
2021/03/09 02:25:23;;;;;;;18.97;13.97;;;-1.60;99.90;;;;;;5110971;28;20504;-68
2021/03/09 02:28:02;;;;;;;17.53;13.23;;;-1.60;99.90;;;;;;5111766;28;21192;-69
2021/03/09 02:30:32;;;;;;;21.47;14.50;;;-1.60;99.90;;;;;;5111565;28;20473;-69
2021/03/09 02:33:08;;;;;;;22.03;14.40;;;-1.60;99.90;;;;;;5112139;28;20859;-68
2021/03/09 02:35:40;;;;;;;24.50;15.17;;;-1.70;99.90;;;;;;5110991;28;20560;-68
2021/03/09 02:38:09;;;;;;;24.77;15.10;;;-1.70;99.90;;;;;;5111682;28;20959;-68
2021/03/09 02:40:36;;;;;;;21.10;13.87;;;-1.60;99.90;;;;;;5111854;28;20524;-68
2021/03/09 02:43:07;;;;;;;19.60;13.50;;;-1.70;99.90;;;;;;5111426;28;20932;-69
2021/03/09 02:45:35;;;;;;;18.67;14.10;;;-1.70;99.90;;;;;;5110866;28;20505;-68
2021/03/09 02:48:03;;;;;;;23.00;14.77;;;-1.70;99.90;;;;;;5111756;28;20520;-68
2021/03/09 02:50:30;;;;;;;17.93;13.13;;;-1.60;99.90;;;;;;5110735;28;20505;-69
2021/03/09 02:53:00;;;;;;;20.33;13.93;;;-1.70;99.90;;;;;;5111437;28;20488;-69
2021/03/09 02:55:28;;;;;;;22.80;13.53;;;-1.70;99.90;;;;;;5110548;28;20461;-69
2021/03/09 02:57:56;;;;;;;21.47;14.23;;;-1.80;99.90;;;;;;5111574;28;20516;-69
2021/03/09 03:00:24;;;;;;;21.90;13.50;;;-1.80;99.90;;;;;;5113837;28;20536;-69
2021/03/09 03:02:52;;;;;;;19.50;13.57;;;-1.70;99.90;;;;;;5115297;28;20446;-69
2021/03/09 03:05:20;;;;;;;19.33;13.80;;;-1.70;99.90;;;;;;5114459;28;20917;-69
2021/03/09 03:07:47;;;;;;;22.30;14.80;;;-1.70;99.90;;;;;;5115005;28;20556;-69
2021/03/09 03:10:17;;;;;;;17.47;12.60;;;-1.70;99.90;;;;;;5115106;28;20449;-69
2021/03/09 03:12:45;;;;;;;20.40;13.40;;;-1.70;99.90;;;;;;5115232;27;20607;-69
2021/03/09 03:15:14;;;;;;;24.13;15.33;;;-1.80;99.90;;;;;;5114324;28;21067;-69
2021/03/09 03:17:42;;;;;;;19.73;13.57;;;-1.80;99.90;;;;;;5114910;28;20433;-69
2021/03/09 03:20:14;;;;;;;20.00;13.20;;;-1.80;99.90;;;;;;5114766;28;20533;-69
2021/03/09 03:22:42;;;;;;;20.70;12.83;;;-1.90;99.90;;;;;;5114589;28;20449;-69
2021/03/09 03:25:10;;;;;;;22.07;13.67;;;-1.80;99.90;;;;;;5114041;28;20567;-69
2021/03/09 03:27:40;;;;;;;19.33;13.57;;;-1.80;99.90;;;;;;5114914;28;20618;-69
2021/03/09 03:30:09;;;;;;;19.27;14.30;;;-1.70;99.90;;;;;;5114467;28;20536;-68
2021/03/09 03:32:36;;;;;;;20.30;13.60;;;-1.70;99.90;;;;;;5114677;28;20956;-69
2021/03/09 03:35:05;;;;;;;21.97;15.37;;;-1.70;99.90;;;;;;5113120;27;20570;-69
2021/03/09 03:37:33;;;;;;;17.27;13.20;;;-1.80;99.90;;;;;;5114222;28;20486;-70
2021/03/09 03:39:59;;;;;;;19.57;13.87;;;-1.90;99.90;;;;;;5114977;28;20578;-69
2021/03/09 03:42:26;;;;;;;17.27;13.10;;;-2.00;99.90;;;;;;5115290;28;20532;-70
2021/03/09 03:44:52;;;;;;;17.20;13.23;;;-2.10;99.90;;;;;;5114088;28;20505;-68
2021/03/09 03:47:19;;;;;;;17.77;13.27;;;-2.10;99.90;;;;;;5114309;28;20473;-69
2021/03/09 03:49:45;;;;;;;25.73;14.10;;;-2.10;99.90;;;;;;5114235;28;20883;-69
2021/03/09 03:52:22;;;;;;;19.90;13.77;;;-2.10;99.90;;;;;;5114201;28;20536;-70
2021/03/09 03:54:58;;;;;;;20.83;13.20;;;-2.10;99.90;;;;;;5113603;28;20945;-73
2021/03/09 03:57:30;;;;;;;19.10;13.30;;;-2.20;99.90;;;;;;5114255;28;20528;-69
2021/03/09 04:00:00;;;;;;;18.53;12.53;;;-2.20;99.90;;;;;;5113752;28;20528;-69
2021/03/09 04:02:28;;;;;;;24.60;13.30;;;-2.20;99.90;;;;;;5113877;28;20477;-69
2021/03/09 04:04:55;;;;;;;18.93;14.27;;;-2.10;99.90;;;;;;5112900;28;20540;-70
2021/03/09 04:07:25;;;;;;;22.10;14.17;;;-2.10;99.90;;;;;;5113721;28;20508;-69
2021/03/09 04:09:55;;;;;;;21.27;14.30;;;-2.10;99.90;;;;;;5113873;28;20590;-70
2021/03/09 04:12:24;;;;;;;23.33;15.47;;;-2.00;99.90;;;;;;5112575;28;20528;-70
2021/03/09 04:14:50;;;;;;;18.90;14.07;;;-1.90;99.90;;;;;;5112875;28;20453;-68
2021/03/09 04:17:19;;;;;;;21.97;14.80;;;-1.90;99.90;;;;;;5113684;28;20987;-69
2021/03/09 04:19:45;;;;;;;19.20;14.27;;;-1.90;99.90;;;;;;5113428;28;21000;-68
2021/03/09 04:22:13;;;;;;;19.03;14.13;;;-1.90;99.90;;;;;;5113029;28;20548;-69
2021/03/09 04:24:41;;;;;;;22.90;14.53;;;-1.90;99.90;;;;;;5112637;28;20556;-69
2021/03/09 04:27:20;;;;;;;24.17;14.37;;;-1.90;99.90;;;;;;5113220;28;20568;-68
2021/03/09 04:29:48;;;;;;;20.57;14.03;;;-1.90;99.90;;;;;;5113456;28;20976;-68
2021/03/09 04:32:15;;;;;;;16.90;13.30;;;-1.80;99.90;;;;;;5113243;28;21022;-68
2021/03/09 04:34:42;;;;;;;18.90;13.13;;;-1.90;99.90;;;;;;5112422;28;20556;-69
2021/03/09 04:37:09;;;;;;;28.00;13.87;;;-2.00;99.90;;;;;;5113028;28;20553;-69
2021/03/09 04:39:37;;;;;;;21.63;14.23;;;-2.00;99.90;;;;;;5113056;28;20486;-69
2021/03/09 04:42:03;;;;;;;21.17;13.47;;;-2.00;99.90;;;;;;5113949;28;20919;-69
2021/03/09 04:44:30;;;;;;;24.60;13.63;;;-2.00;99.90;;;;;;5113267;28;20504;-69
2021/03/09 04:46:57;;;;;;;24.80;13.13;;;-2.00;99.90;;;;;;5114084;28;20579;-69
2021/03/09 04:49:24;;;;;;;27.10;13.93;;;-2.00;99.90;;;;;;5114113;28;20548;-68
2021/03/09 04:51:50;;;;;;;20.43;13.07;;;-2.00;99.90;;;;;;5113621;28;20529;-69
2021/03/09 04:54:17;;;;;;;26.83;16.30;;;-2.10;99.90;;;;;;5113214;28;20893;-68
2021/03/09 04:56:43;;;;;;;20.70;14.43;;;-2.10;99.90;;;;;;5113335;28;20549;-69
2021/03/09 04:59:09;;;;;;;21.73;14.40;;;-2.10;99.90;;;;;;5112802;28;20528;-69
2021/03/09 05:01:38;;;;;;;20.80;14.20;;;-2.20;99.90;;;;;;5112771;28;20539;-69
2021/03/09 05:04:05;;;;;;;18.47;13.20;;;-2.10;99.90;;;;;;5111980;27;20528;-69
2021/03/09 05:06:31;;;;;;;20.17;14.30;;;-2.20;99.90;;;;;;5112493;28;20524;-69
2021/03/09 05:08:57;;;;;;;22.40;15.00;;;-2.10;99.90;;;;;;5112244;28;20469;-69
2021/03/09 05:11:24;;;;;;;23.80;15.20;;;-2.10;99.90;;;;;;5112527;28;20481;-69
2021/03/09 05:13:50;;;;;;;21.57;14.50;;;-2.10;99.90;;;;;;5112085;28;20524;-69
2021/03/09 05:16:17;;;;;;;21.67;15.10;;;-2.20;99.90;;;;;;5112629;28;20505;-68
2021/03/09 05:18:44;;;;;;;23.57;15.13;;;-2.20;99.90;;;;;;5112364;28;21015;-69
2021/03/09 05:21:11;;;;;;;23.70;15.00;;;-2.30;99.90;;;;;;5112153;28;20449;-69
2021/03/09 05:23:37;;;;;;;21.63;14.83;;;-2.30;99.90;;;;;;5111224;28;20496;-68
2021/03/09 05:26:04;;;;;;;21.40;14.40;;;-2.30;99.90;;;;;;5112274;28;20540;-69
2021/03/09 05:28:30;;;;;;;21.07;14.40;;;-2.20;99.90;;;;;;5112148;28;20563;-69
2021/03/09 05:30:56;;;;;;;21.37;13.77;;;-2.20;99.90;;;;;;5111900;28;20524;-69
2021/03/09 05:33:23;;;;;;;20.47;14.23;;;-2.10;99.90;;;;;;5111760;28;20943;-70
2021/03/09 05:35:50;;;;;;;24.23;15.00;;;-2.10;99.90;;;;;;5112141;28;20552;-69
2021/03/09 05:38:16;;;;;;;23.67;16.43;;;-2.00;99.90;;;;;;5112111;28;20437;-69
2021/03/09 05:40:43;;;;;;;23.10;14.23;;;-2.00;99.90;;;;;;5112074;28;20469;-69
2021/03/09 05:43:11;;;;;;;20.20;14.90;;;-2.00;99.90;;;;;;5112254;28;20446;-69
2021/03/09 05:45:38;;;;;;;23.10;14.63;;;-2.00;99.90;;;;;;5111039;28;20548;-69
2021/03/09 05:48:05;;;;;;;22.80;14.10;;;-1.90;99.90;;;;;;5111892;28;20689;-69
2021/03/09 05:50:32;;;;;;;20.57;14.80;;;-1.90;99.90;;;;;;5111984;28;20446;-70
2021/03/09 05:52:59;;;;;;;21.70;13.67;;;-2.00;99.90;;;;;;5111813;28;20445;-70
2021/03/09 05:55:25;;;;;;;19.63;14.27;;;-2.10;99.90;;;;;;5111466;28;20548;-70
2021/03/09 05:57:52;;;;;;;20.50;14.10;;;-2.10;99.90;;;;;;5111992;28;20623;-71
2021/03/09 06:00:20;;;;;;;25.13;16.90;;;-2.10;99.90;;;;;;5110173;28;20441;-71
2021/03/09 06:02:47;;;;;;;23.80;15.20;;;-2.10;99.90;;;;;;5109433;28;20490;-71
2021/03/09 06:05:14;;;;;;;23.97;15.10;;;-2.10;99.90;;;;;;5110449;28;20469;-72
2021/03/09 06:07:40;;;;;;;21.40;14.93;;;-2.10;99.90;;;;;;5111299;28;20564;-70
2021/03/09 06:10:20;;;;;;;21.23;15.43;;;-2.00;99.90;;;;;;5111400;28;20453;-70
2021/03/09 06:12:46;;;;;;;21.23;15.50;;;-1.90;99.90;;;;;;5097138;28;20473;-69
2021/03/09 06:15:13;;;;;;;21.93;15.47;;;-1.70;99.90;;;;;;5106349;28;20469;-69
2021/03/09 06:17:42;;;;;;;22.20;15.67;;;-1.80;99.90;;;;;;5108563;28;20536;-70
2021/03/09 06:20:19;;;;;;;25.00;15.63;;;-1.80;99.90;;;;;;5110189;28;20452;-73
2021/03/09 06:22:47;;;;;;;24.57;15.30;;;-1.70;99.90;;;;;;5109355;28;20453;-70
2021/03/09 06:25:16;;;;;;;19.20;14.00;;;-1.60;99.90;;;;;;5110368;28;21067;-71
2021/03/09 06:27:43;;;;;;;19.90;14.73;;;-1.50;99.90;;;;;;5111354;28;20508;-70
2021/03/09 06:30:13;;;;;;;21.10;14.17;;;-1.50;99.90;;;;;;5111092;28;20861;-75
2021/03/09 06:32:41;;;;;;;21.73;14.70;;;-1.50;99.90;;;;;;5111587;28;20532;-72
2021/03/09 06:35:23;;;;;;;29.23;16.90;;;-1.50;99.90;;;;;;5112965;28;20512;-71
2021/03/09 06:37:50;;;;;;;27.00;17.13;;;-1.50;99.90;;;;;;5115469;28;20527;-71
2021/03/09 06:40:17;;;;;;;21.57;16.10;;;-1.40;99.90;;;;;;5114484;28;20479;-71
2021/03/09 06:42:43;;;;;;;21.50;15.57;;;-1.40;99.90;;;;;;5103624;28;20535;-70
2021/03/09 06:45:12;;;;;;;25.03;15.90;;;-1.30;99.90;;;;;;5114533;28;21070;-72
2021/03/09 06:47:41;;;;;;;24.67;16.43;;;-1.20;99.90;;;;;;5118529;28;20505;-68
2021/03/09 06:50:11;;;;;;;22.33;15.23;;;-1.10;99.90;;;;;;5116310;28;20451;-70
2021/03/09 06:52:38;;;;;;;16.70;13.80;;;-1.10;99.90;;;;;;5113968;28;20536;-68
2021/03/09 06:55:06;;;;;;;24.83;16.07;;;-1.00;99.90;;;;;;5111986;28;20753;-70
2021/03/09 06:57:33;;;;;;;25.07;16.43;;;-0.90;99.90;;;;;;5112513;28;20535;-71
2021/03/09 07:06:51;;;;;;;19.87;14.07;;;-0.50;99.90;;;;;;5110957;28;20428;-66
2021/03/09 07:09:17;;;;;;;25.20;13.70;;;-0.40;99.90;;;;;;5112607;28;20543;-69
2021/03/09 07:11:44;;;;;;;20.23;14.27;;;-0.20;99.90;;;;;;5112261;28;20529;-71
2021/03/09 07:14:13;;;;;;;19.50;13.20;;;-0.10;99.90;;;;;;5099459;28;20488;-67
2021/03/09 07:16:40;;;;;;;19.43;14.97;;;0.00;99.90;;;;;;5106191;28;20537;-70
2021/03/09 07:19:07;;;;;;;17.07;12.63;;;0.10;99.90;;;;;;5108993;28;20445;-71
2021/03/09 07:21:34;;;;;;;19.07;14.53;;;0.20;99.90;;;;;;5110476;28;20895;-74
2021/03/09 07:24:03;;;;;;;19.83;13.23;;;0.30;99.90;;;;;;5109901;28;21050;-70
2021/03/09 07:26:30;;;;;;;16.27;13.33;;;0.50;99.90;;;;;;5110494;28;20449;-69
2021/03/09 07:29:02;;;;;;;22.07;14.37;;;0.70;99.90;;;;;;5111159;28;20481;-69
2021/03/09 07:31:33;;;;;;;16.30;13.23;;;0.90;99.90;;;;;;5110877;28;20816;-67
2021/03/09 07:34:01;;;;;;;15.90;12.50;;;1.10;99.90;;;;;;5110388;28;20975;-68
2021/03/09 07:36:28;;;;;;;17.80;14.10;;;1.30;99.90;;;;;;5111256;28;20541;-68
2021/03/09 07:38:56;;;;;;;20.03;13.57;;;1.50;99.90;;;;;;5110978;28;20548;-68
2021/03/09 07:41:23;;;;;;;16.57;12.93;;;1.60;99.90;;;;;;5110430;27;20476;-71
2021/03/09 07:43:50;;;;;;;19.70;13.03;;;1.80;99.90;;;;;;5110116;28;20452;-68
2021/03/09 07:46:17;;;;;;;18.50;12.97;;;2.00;99.90;;;;;;5110746;28;20544;-68
2021/03/09 07:48:44;;;;;;;20.50;13.60;;;2.20;99.90;;;;;;5111032;28;20484;-68
2021/03/09 07:51:11;;;;;;;19.30;14.03;;;2.40;99.90;;;;;;5110475;28;20905;-72
2021/03/09 07:53:37;;;;;;;20.27;13.90;;;2.50;99.90;;;;;;5110002;28;20536;-70
2021/03/09 07:56:13;;;;;;;19.73;14.10;;;2.70;99.90;;;;;;5110886;28;20536;-67
2021/03/09 07:58:40;;;;;;;19.07;13.87;;;2.90;99.90;;;;;;5110512;28;21167;-67
2021/03/09 08:01:07;;;;;;;18.60;13.83;;;3.10;99.90;;;;;;5110372;28;20504;-67
2021/03/09 08:03:35;;;;;;;19.07;13.77;;;3.20;99.90;;;;;;5109661;28;20479;-67
2021/03/09 08:06:04;;;;;;;19.43;14.80;;;3.20;99.90;;;;;;5110157;28;20529;-67
2021/03/09 08:08:42;;;;;;;22.23;12.60;;;3.30;99.90;;;;;;5110125;28;21076;-68
2021/03/09 08:11:29;;;;;;;16.13;13.03;;;3.30;99.90;;;;;;5110278;28;20528;-67
2021/03/09 08:14:20;;;;;;;17.13;13.40;;;3.30;99.90;;;;;;5109398;28;20481;-68
2021/03/09 08:16:47;;;;;;;20.20;13.70;;;3.40;99.90;;;;;;5110521;28;20444;-67
2021/03/09 08:19:40;;;;;;;20.73;13.60;;;3.40;99.90;;;;;;5110111;28;20527;-67
2021/03/09 08:22:08;;;;;;;19.17;14.60;;;3.60;99.90;;;;;;5110234;28;20483;-66
2021/03/09 08:24:57;;;;;;;17.53;13.93;;;3.70;99.90;;;;;;5109547;28;20883;-67
2021/03/09 08:27:39;;;;;;;26.90;15.00;;;3.80;99.90;;;;;;5110322;28;20477;-66
2021/03/09 08:30:38;;;;;;;19.80;14.77;;;3.90;99.90;;;;;;5108118;28;20480;-66
2021/03/09 08:33:35;;;;;;;21.37;14.23;;;4.10;99.90;;;;;;5109634;28;20477;-67
2021/03/09 08:36:18;;;;;;;22.63;14.97;;;4.50;99.90;;;;;;5110052;28;20928;-67
2021/03/09 08:39:12;;;;;;;20.33;15.17;;;4.80;99.90;;;;;;5107388;28;20446;-67
2021/03/09 08:41:56;;;;;;;21.10;15.00;;;5.10;99.90;;;;;;5109175;28;20441;-67
2021/03/09 08:44:24;;;;;;;21.83;15.53;;;5.30;99.90;;;;;;5109024;28;20576;-67
2021/03/09 08:46:54;;;;;;;17.70;15.07;;;5.30;99.90;;;;;;5109767;28;20959;-67
2021/03/09 08:49:52;;;;;;;19.93;14.83;;;5.60;99.90;;;;;;5109660;28;20880;-68
2021/03/09 08:52:41;;;;;;;22.47;16.10;;;5.80;99.90;;;;;;5046033;28;20444;-68
2021/03/09 08:55:09;;;;;;;22.10;16.43;;;6.00;99.90;;;;;;5103916;28;20484;-68
2021/03/09 08:57:35;;;;;;;20.90;16.90;;;6.20;99.90;;;;;;5108905;28;20549;-69
2021/03/09 09:00:08;;;;;;;28.03;15.93;;;6.40;99.90;;;;;;5109176;28;20468;-68
2021/03/09 09:02:40;;;;;;;23.77;17.07;;;6.70;99.90;;;;;;5109092;28;20501;-67
2021/03/09 09:05:08;;;;;;;22.73;17.23;;;6.80;99.90;;;;;;5108717;28;21151;-66
2021/03/09 09:07:36;;;;;;;23.37;17.27;;;6.80;99.90;;;;;;5109510;28;20469;-66
2021/03/09 09:10:08;;;;;;;23.50;17.60;;;6.70;99.90;;;;;;5108343;28;21143;-67
2021/03/09 09:12:37;;;;;;;23.27;18.50;;;6.80;99.90;;;;;;5108735;28;20457;-68
2021/03/09 09:15:18;;;;;;;22.57;16.97;;;6.80;99.90;;;;;;5108142;28;20980;-67
2021/03/09 09:17:47;;;;;;;25.37;18.07;;;6.80;99.90;;;;;;5109508;28;20441;-65
2021/03/09 09:20:16;;;;;;;22.80;18.30;;;6.90;99.90;;;;;;5107805;28;20441;-65
2021/03/09 09:22:44;;;;;;;26.27;17.50;;;7.00;99.90;;;;;;5109656;28;20449;-66
2021/03/09 09:25:12;;;;;;;23.40;17.27;;;7.10;99.90;;;;;;5108750;28;20469;-66
2021/03/09 09:27:48;;;;;;;25.53;16.40;;;7.20;99.90;;;;;;5108388;28;21091;-66
2021/03/09 09:30:19;;;;;;;25.10;18.23;;;7.30;99.90;;;;;;5109360;28;20461;-68
2021/03/09 09:32:50;;;;;;;21.80;16.93;;;7.60;99.90;;;;;;5110001;28;20449;-66
2021/03/09 09:35:18;;;;;;;26.20;18.57;;;7.90;99.90;;;;;;5109384;28;20468;-67
2021/03/09 09:37:46;;;;;;;22.90;17.60;;;8.10;99.90;;;;;;5109476;28;21190;-67
2021/03/09 09:40:13;;;;;;;23.83;18.27;;;8.50;99.90;;;;;;5108497;28;20528;-67
2021/03/09 09:42:40;;;;;;;21.40;18.50;;;8.60;99.90;;;;;;5108956;28;20520;-69
2021/03/09 09:45:09;;;;;;;23.40;17.50;;;8.50;99.90;;;;;;5108589;28;20967;-70
2021/03/09 09:47:36;;;;;;;25.20;18.73;;;8.70;99.90;;;;;;5110021;28;20584;-69
2021/03/09 09:50:05;;;;;;;20.23;17.20;;;9.10;99.90;;;;;;5109671;28;20574;-69
2021/03/09 09:52:31;;;;;;;19.33;17.27;;;9.20;99.90;;;;;;5110141;28;20477;-70
2021/03/09 09:54:58;;;;;;;25.87;18.27;;;9.40;99.90;;;;;;5109205;28;20548;-69
2021/03/09 09:57:24;;;;;;;19.80;17.50;;;9.60;99.90;;;;;;5109822;28;20464;-67
2021/03/09 09:59:51;;;;;;;19.53;16.07;;;9.80;99.90;;;;;;5109754;28;20464;-67
2021/03/09 10:02:20;;;;;;;20.50;17.23;;;9.90;99.90;;;;;;5109035;28;20533;-68
2021/03/09 10:04:47;;;;;;;20.30;17.07;;;10.10;99.80;;;;;;5108781;28;20556;-68
2021/03/09 10:07:15;;;;;;;23.60;18.67;;;10.10;99.60;;;;;;5109732;28;20445;-70
2021/03/09 10:09:58;;;;;;;20.03;17.73;;;9.90;99.80;;;;;;5108748;28;20528;-69
2021/03/09 10:12:32;;;;;;;19.50;16.97;;;10.00;99.40;;;;;;5109156;28;20832;-70
2021/03/09 10:14:59;;;;;;;18.87;16.47;;;10.30;99.10;;;;;;5106564;28;20468;-69
2021/03/09 10:17:26;;;;;;;19.53;17.37;;;10.40;98.50;;;;;;5108950;28;20878;-68
2021/03/09 10:19:54;;;;;;;21.47;18.07;;;10.50;98.70;;;;;;5109190;28;20450;-68
2021/03/09 10:22:22;;;;;;;23.80;17.83;;;10.60;97.80;;;;;;5109228;28;20454;-65
2021/03/09 10:24:48;;;;;;;18.67;16.13;;;10.20;97.70;;;;;;5108658;28;20561;-65
2021/03/09 10:27:17;;;;;;;21.27;17.30;;;10.20;97.60;;;;;;5108835;28;20503;-65
2021/03/09 10:29:44;;;;;;;19.20;17.07;;;9.90;98.60;;;;;;5108964;28;20456;-64
2021/03/09 10:32:15;;;;;;;20.17;16.57;;;9.90;98.80;;;;;;5109205;28;20453;-65
2021/03/09 10:34:44;;;;;;;18.87;14.97;;;10.10;97.80;;;;;;5108411;28;20473;-67
2021/03/09 10:37:12;;;;;;;20.43;14.37;;;10.20;97.20;;;;;;5089294;28;20450;-69
2021/03/09 10:39:40;;;;;;;19.90;15.10;;;10.20;97.40;;;;;;5087745;28;20450;-67
2021/03/09 10:42:29;;;;;;;20.13;15.57;;;10.50;97.70;;;;;;5087489;28;20529;-67
2021/03/09 10:44:56;;;;;;;18.20;15.23;;;10.80;96.70;;;;;;5086764;28;20489;-66
2021/03/09 10:47:23;;;;;;;16.10;14.13;;;11.20;96.60;;;;;;5087828;28;21238;-69
2021/03/09 10:49:50;;;;;;;17.93;14.50;;;11.40;95.90;;;;;;5087905;28;20541;-67
2021/03/09 10:52:17;;;;;;;16.03;13.80;;;11.60;95.70;;;;;;5087295;28;20484;-68
2021/03/09 10:54:43;;;;;;;16.17;14.20;;;11.70;95.50;;;;;;5086996;28;20501;-68
2021/03/09 10:57:10;;;;;;;16.70;15.00;;;11.70;94.50;;;;;;5087572;28;20529;-67
2021/03/09 10:59:37;;;;;;;17.27;13.83;;;11.70;93.50;;;;;;5087528;28;20540;-68
2021/03/09 11:02:07;;;;;;;17.60;13.60;;;10.90;93.60;;;;;;5087444;28;20548;-67
2021/03/09 11:04:34;;;;;;;16.80;13.20;;;10.70;94.20;;;;;;5087003;28;20676;-68
2021/03/09 11:07:01;;;;;;;15.53;13.93;;;10.20;95.10;;;;;;5086827;28;21014;-69
2021/03/09 11:09:28;;;;;;;14.33;12.80;;;10.50;95.70;;;;;;5087419;28;20560;-70
2021/03/09 11:11:54;;;;;;;15.73;13.63;;;10.70;93.90;;;;;;5086718;28;20454;-69
2021/03/09 11:14:21;;;;;;;18.13;13.40;;;10.20;94.10;;;;;;5086241;28;20499;-68
2021/03/09 11:16:47;;;;;;;18.33;12.30;;;10.00;95.60;;;;;;5087444;28;20461;-67
2021/03/09 11:19:14;;;;;;;14.37;11.53;;;10.20;95.20;;;;;;5087617;28;20438;-66
2021/03/09 11:21:40;;;;;;;13.23;11.27;;;10.00;94.80;;;;;;5090175;28;20477;-67
2021/03/09 11:24:08;;;;;;;13.73;12.33;;;10.30;95.80;;;;;;5089976;28;20497;-68
2021/03/09 11:26:35;;;;;;;13.37;10.97;;;10.70;94.70;;;;;;5098723;28;20433;-68
2021/03/09 11:29:02;;;;;;;12.57;11.20;;;11.20;94.00;;;;;;5092347;28;20898;-67
2021/03/09 11:31:28;;;;;;;13.00;11.20;;;11.50;93.40;;;;;;5090410;28;20542;-67
2021/03/09 11:33:54;;;;;;;12.63;11.33;;;11.20;91.80;;;;;;5089866;28;20992;-71
2021/03/09 11:36:22;;;;;;;15.60;10.53;;;11.10;92.50;;;;;;5090755;28;20500;-68
2021/03/09 11:38:49;;;;;;;12.87;10.50;;;11.40;93.10;;;;;;5090576;28;20516;-69
2021/03/09 11:41:18;;;;;;;13.13;11.73;;;11.70;93.10;;;;;;5090845;28;21565;-68
2021/03/09 11:43:44;;;;;;;12.57;10.77;;;12.10;92.50;;;;;;5089717;28;20525;-68
2021/03/09 11:46:11;;;;;;;13.33;10.80;;;11.90;90.80;;;;;;5090741;28;20497;-67
2021/03/09 11:48:39;;;;;;;12.37;11.17;;;11.90;91.40;;;;;;5090379;28;21048;-68
2021/03/09 11:51:06;;;;;;;12.13;10.80;;;12.10;91.40;;;;;;5090511;28;20450;-67
2021/03/09 11:53:33;;;;;;;12.03;10.70;;;12.40;90.50;;;;;;5090706;28;20870;-67
2021/03/09 11:55:59;;;;;;;10.83;9.73;;;12.90;90.20;;;;;;5090205;28;20549;-67
2021/03/09 11:58:26;;;;;;;11.43;9.27;;;13.20;89.40;;;;;;5089841;28;20469;-68
2021/03/09 12:00:53;;;;;;;10.30;9.20;;;13.40;87.10;;;;;;5091055;28;20481;-68
2021/03/09 12:03:19;;;;;;;11.07;9.97;;;13.30;83.50;;;;;;5090412;28;20533;-68
2021/03/09 12:05:46;;;;;;;11.43;9.87;;;12.80;83.70;;;;;;5090461;28;20549;-68
2021/03/09 12:08:12;;;;;;;11.37;10.17;;;12.80;86.30;;;;;;5090774;28;20536;-68
2021/03/09 12:10:38;;;;;;;11.20;9.47;;;13.30;83.80;;;;;;5090623;28;20482;-68
2021/03/09 12:13:05;;;;;;;12.70;8.97;;;13.80;82.90;;;;;;5090746;28;20503;-68
2021/03/09 12:15:32;;;;;;;10.93;9.77;;;14.00;81.90;;;;;;5090010;28;20550;-68
2021/03/09 12:17:59;;;;;;;11.30;9.30;;;13.70;78.70;;;;;;5090447;28;20520;-68
2021/03/09 12:20:25;;;;;;;10.00;9.00;;;13.50;80.90;;;;;;5090725;28;20470;-68
2021/03/09 12:22:51;;;;;;;9.50;8.50;;;13.40;81.20;;;;;;5090794;28;20557;-68
2021/03/09 12:25:18;;;;;;;9.87;8.87;;;13.70;82.00;;;;;;5095371;28;20465;-67
2021/03/09 12:27:44;;;;;;;9.20;8.30;;;14.10;79.50;;;;;;5110508;28;20910;-68
2021/03/09 12:30:12;;;;;;;9.30;8.27;;;14.40;78.00;;;;;;5110814;28;20469;-69
2021/03/09 12:32:39;;;;;;;9.10;8.27;;;14.60;77.60;;;;;;5109798;28;20975;-69
2021/03/09 12:35:07;;;;;;;10.03;9.03;;;15.00;74.80;;;;;;5110692;28;20469;-68
2021/03/09 12:37:34;;;;;;;9.87;8.97;;;14.70;72.10;;;;;;5111473;28;20524;-68
2021/03/09 12:40:01;;;;;;;12.47;9.83;;;15.00;74.40;;;;;;5111763;28;20524;-68
2021/03/09 12:42:27;;;;;;;13.53;9.80;;;14.70;74.10;;;;;;5111458;28;20936;-67
2021/03/09 12:44:53;;;;;;;11.13;10.03;;;14.20;71.90;;;;;;5110685;28;20551;-68
2021/03/09 12:47:21;;;;;;;11.87;10.67;;;13.70;74.70;;;;;;5111270;28;20484;-68